EXS57MA LCLK-EGPH
Flight info
| Callsign | EXS57MA |
|---|---|
| Flight time | N/A |
| Altitude | 34000 |
| Route | PHA M31 GENOS DCT PEDER DCT EVENO DCT BENEM UN127 BIRPU DCT ULKAN DCT RIKSO UN128 LMO DCT FSK/N0447F360 UL608 DISOR DCT LONTA UL608 DOLEV DCT GENLU DCT PODOB DCT TIVNU DCT VALLU DCT CEPRA DCT DIPSA DCT SIMBA DCT INBED DCT OSBIT DCT TIVUN DCT SPY DCT GODOS DCT AGPED |
| Aircraft | B738/M-SDE2E3FGHIRWXY/LB1 |
Departure
| Time | 2026-04-27 07:30 |
|---|---|
| Airport | Larnaca International Airport (LCLK) |
Arrival
| Time | N/A |
|---|---|
| Airport | Edinburgh Airport (EGPH) |
| Time | Latitude | Longitude | Altitude | Speed | Heading |
|---|---|---|---|---|---|
| 2026-04-27 06:58 | 34.86906 | 33.60894 | 19 ft | 0 kts | 46° |
| 2026-04-27 07:19 | 34.86884 | 33.60865 | 21 ft | 4 kts | 46° |
| 2026-04-27 07:19 | 34.86872 | 33.60849 | 22 ft | 4 kts | 55° |
| 2026-04-27 07:19 | 34.86862 | 33.60821 | 23 ft | 4 kts | 95° |
| 2026-04-27 07:19 | 34.86871 | 33.60795 | 22 ft | 2 kts | 135° |
| 2026-04-27 07:20 | 34.86876 | 33.60790 | 23 ft | 0 kts | 135° |
| 2026-04-27 07:22 | 34.86867 | 33.60801 | 19 ft | 5 kts | 135° |
| 2026-04-27 07:22 | 34.86827 | 33.60849 | 19 ft | 11 kts | 135° |
| 2026-04-27 07:23 | 34.86758 | 33.60931 | 19 ft | 17 kts | 135° |
| 2026-04-27 07:23 | 34.86698 | 33.61052 | 19 ft | 18 kts | 71° |
| 2026-04-27 07:23 | 34.86781 | 33.61165 | 20 ft | 19 kts | 45° |
| 2026-04-27 07:23 | 34.86885 | 33.61293 | 19 ft | 22 kts | 45° |
| 2026-04-27 07:24 | 34.86989 | 33.61422 | 19 ft | 21 kts | 45° |
| 2026-04-27 07:24 | 34.87093 | 33.61548 | 19 ft | 21 kts | 45° |
| 2026-04-27 07:24 | 34.87193 | 33.61670 | 19 ft | 20 kts | 45° |
| 2026-04-27 07:24 | 34.87290 | 33.61789 | 19 ft | 19 kts | 45° |
| 2026-04-27 07:25 | 34.87383 | 33.61904 | 20 ft | 19 kts | 45° |
| 2026-04-27 07:25 | 34.87474 | 33.62016 | 19 ft | 18 kts | 44° |
| 2026-04-27 07:25 | 34.87506 | 33.62132 | 20 ft | 15 kts | 117° |
| 2026-04-27 07:25 | 34.87541 | 33.62237 | 19 ft | 14 kts | 44° |
| 2026-04-27 07:26 | 34.87622 | 33.62336 | 20 ft | 20 kts | 45° |
| 2026-04-27 07:26 | 34.87731 | 33.62469 | 19 ft | 23 kts | 45° |
| 2026-04-27 07:26 | 34.87843 | 33.62606 | 19 ft | 22 kts | 45° |
| 2026-04-27 07:26 | 34.87952 | 33.62739 | 19 ft | 22 kts | 44° |
| 2026-04-27 07:27 | 34.88058 | 33.62867 | 19 ft | 21 kts | 45° |
| 2026-04-27 07:27 | 34.88162 | 33.62992 | 20 ft | 21 kts | 45° |
| 2026-04-27 07:27 | 34.88260 | 33.63115 | 19 ft | 20 kts | 46° |
| 2026-04-27 07:27 | 34.88356 | 33.63233 | 20 ft | 19 kts | 44° |
| 2026-04-27 07:28 | 34.88439 | 33.63342 | 19 ft | 15 kts | 66° |
| 2026-04-27 07:28 | 34.88402 | 33.63432 | 19 ft | 12 kts | 135° |
| 2026-04-27 07:28 | 34.88342 | 33.63504 | 20 ft | 12 kts | 135° |
| 2026-04-27 07:28 | 34.88277 | 33.63499 | 20 ft | 6 kts | 228° |
| 2026-04-27 07:29 | 34.88237 | 33.63446 | 18 ft | 19 kts | 227° |
| 2026-04-27 07:29 | 34.87976 | 33.63129 | 20 ft | 88 kts | 225° |
| 2026-04-27 07:29 | 34.87392 | 33.62415 | 19 ft | 148 kts | 225° |
| 2026-04-27 07:29 | 34.86573 | 33.61414 | 319 ft | 174 kts | 224° |
| 2026-04-27 07:30 | 34.85725 | 33.60343 | 1135 ft | 178 kts | 226° |
| 2026-04-27 07:30 | 34.84870 | 33.59245 | 1919 ft | 182 kts | 226° |
| 2026-04-27 07:30 | 34.83937 | 33.58041 | 2220 ft | 209 kts | 226° |
| 2026-04-27 07:30 | 34.82882 | 33.56680 | 2438 ft | 232 kts | 226° |
| 2026-04-27 07:31 | 34.81738 | 33.55205 | 2752 ft | 251 kts | 226° |
| 2026-04-27 07:31 | 34.80496 | 33.53605 | 3196 ft | 266 kts | 226° |
| 2026-04-27 07:31 | 34.79216 | 33.51959 | 3956 ft | 270 kts | 225° |
| 2026-04-27 07:31 | 34.77911 | 33.50282 | 4680 ft | 276 kts | 225° |
| 2026-04-27 07:32 | 34.76575 | 33.48565 | 5383 ft | 282 kts | 225° |
| 2026-04-27 07:32 | 34.75219 | 33.46824 | 6150 ft | 285 kts | 225° |
| 2026-04-27 07:32 | 34.73844 | 33.45058 | 6840 ft | 290 kts | 225° |
| 2026-04-27 07:32 | 34.72442 | 33.43260 | 7509 ft | 295 kts | 225° |
| 2026-04-27 07:33 | 34.71017 | 33.41435 | 8205 ft | 300 kts | 225° |
| 2026-04-27 07:33 | 34.69571 | 33.39583 | 8871 ft | 305 kts | 224° |
| 2026-04-27 07:33 | 34.68339 | 33.37461 | 9513 ft | 313 kts | 249° |
| 2026-04-27 07:33 | 34.67935 | 33.34872 | 10180 ft | 314 kts | 271° |
| 2026-04-27 07:34 | 34.68014 | 33.32155 | 10482 ft | 333 kts | 275° |
| 2026-04-27 07:34 | 34.68164 | 33.29262 | 10660 ft | 354 kts | 275° |
| 2026-04-27 07:34 | 34.68328 | 33.26190 | 10854 ft | 373 kts | 275° |
| 2026-04-27 07:34 | 34.68479 | 33.22993 | 11308 ft | 383 kts | 274° |
| 2026-04-27 07:35 | 34.68616 | 33.19754 | 12011 ft | 384 kts | 273° |
| 2026-04-27 07:35 | 34.68744 | 33.16551 | 12722 ft | 386 kts | 273° |
| 2026-04-27 07:35 | 34.68871 | 33.13284 | 13382 ft | 389 kts | 273° |
| 2026-04-27 07:35 | 34.69000 | 33.09985 | 14001 ft | 392 kts | 272° |
| 2026-04-27 07:36 | 34.69128 | 33.06662 | 14625 ft | 394 kts | 272° |
| 2026-04-27 07:36 | 34.69257 | 33.03327 | 15254 ft | 396 kts | 272° |
| 2026-04-27 07:36 | 34.69386 | 32.99970 | 15864 ft | 399 kts | 273° |
| 2026-04-27 07:36 | 34.69515 | 32.96593 | 16448 ft | 402 kts | 273° |
| 2026-04-27 07:37 | 34.69644 | 32.93193 | 17027 ft | 405 kts | 273° |
| 2026-04-27 07:37 | 34.69773 | 32.89768 | 17601 ft | 407 kts | 273° |
| 2026-04-27 07:37 | 34.69902 | 32.86314 | 18193 ft | 410 kts | 273° |
| 2026-04-27 07:37 | 34.70030 | 32.82843 | 18704 ft | 413 kts | 273° |
| 2026-04-27 07:38 | 34.70159 | 32.79352 | 19208 ft | 415 kts | 273° |
| 2026-04-27 07:38 | 34.70287 | 32.75838 | 19700 ft | 418 kts | 274° |
| 2026-04-27 07:38 | 34.70415 | 32.72304 | 20209 ft | 420 kts | 274° |
| 2026-04-27 07:38 | 34.70544 | 32.68750 | 20696 ft | 422 kts | 274° |
| 2026-04-27 07:39 | 34.70675 | 32.65174 | 21178 ft | 424 kts | 274° |
| 2026-04-27 07:39 | 34.70806 | 32.61587 | 21622 ft | 427 kts | 274° |
| 2026-04-27 07:39 | 34.70938 | 32.57972 | 22076 ft | 429 kts | 274° |
| 2026-04-27 07:39 | 34.71068 | 32.54340 | 22538 ft | 431 kts | 274° |
| 2026-04-27 07:40 | 34.71195 | 32.50693 | 22999 ft | 433 kts | 274° |
| 2026-04-27 07:40 | 34.71168 | 32.47072 | 23429 ft | 436 kts | 269° |
| 2026-04-27 07:40 | 34.70983 | 32.43379 | 23814 ft | 439 kts | 268° |
| 2026-04-27 07:40 | 34.70739 | 32.39674 | 24191 ft | 440 kts | 267° |
| 2026-04-27 07:41 | 34.70489 | 32.35961 | 24567 ft | 442 kts | 268° |
| 2026-04-27 07:41 | 34.70253 | 32.32233 | 24926 ft | 443 kts | 268° |
| 2026-04-27 07:41 | 34.70032 | 32.28494 | 25267 ft | 445 kts | 269° |
| 2026-04-27 07:41 | 34.69821 | 32.24737 | 25610 ft | 446 kts | 269° |
| 2026-04-27 07:42 | 34.69616 | 32.20966 | 25957 ft | 448 kts | 269° |
| 2026-04-27 07:42 | 34.69411 | 32.17187 | 26288 ft | 449 kts | 269° |
| 2026-04-27 07:42 | 34.69205 | 32.13397 | 26617 ft | 451 kts | 269° |
| 2026-04-27 07:42 | 34.68995 | 32.09591 | 26939 ft | 452 kts | 269° |
| 2026-04-27 07:43 | 34.68784 | 32.05773 | 27254 ft | 454 kts | 269° |
| 2026-04-27 07:43 | 34.68570 | 32.01942 | 27559 ft | 455 kts | 269° |
| 2026-04-27 07:43 | 34.68354 | 31.98100 | 27864 ft | 456 kts | 270° |
| 2026-04-27 07:43 | 34.68210 | 31.94252 | 28161 ft | 455 kts | 276° |
| 2026-04-27 07:44 | 34.68609 | 31.90471 | 28491 ft | 449 kts | 287° |
| 2026-04-27 07:44 | 34.69529 | 31.86890 | 29012 ft | 440 kts | 296° |
| 2026-04-27 07:44 | 34.70912 | 31.83614 | 29512 ft | 433 kts | 304° |
| 2026-04-27 07:44 | 34.72454 | 31.80487 | 29942 ft | 431 kts | 304° |
| 2026-04-27 07:45 | 34.74011 | 31.77378 | 30263 ft | 430 kts | 304° |
| 2026-04-27 07:45 | 34.75564 | 31.74271 | 30548 ft | 430 kts | 304° |
| 2026-04-27 07:45 | 34.77106 | 31.71160 | 30880 ft | 428 kts | 304° |
| 2026-04-27 07:45 | 34.78629 | 31.68059 | 31231 ft | 426 kts | 304° |
| 2026-04-27 07:46 | 34.80142 | 31.64962 | 31556 ft | 425 kts | 303° |
| 2026-04-27 07:46 | 34.81646 | 31.61868 | 31838 ft | 425 kts | 303° |
| 2026-04-27 07:46 | 34.83145 | 31.58777 | 32136 ft | 424 kts | 303° |
| 2026-04-27 07:46 | 34.84637 | 31.55695 | 32455 ft | 422 kts | 303° |
| 2026-04-27 07:47 | 34.86123 | 31.52621 | 32762 ft | 421 kts | 303° |
| 2026-04-27 07:47 | 34.87606 | 31.49554 | 33032 ft | 420 kts | 303° |
| 2026-04-27 07:47 | 34.89087 | 31.46488 | 33322 ft | 419 kts | 303° |
| 2026-04-27 07:47 | 34.90561 | 31.43433 | 33605 ft | 418 kts | 303° |
| 2026-04-27 07:48 | 34.92029 | 31.40388 | 33879 ft | 417 kts | 303° |
| 2026-04-27 07:48 | 34.93497 | 31.37341 | 33997 ft | 418 kts | 303° |
| 2026-04-27 07:48 | 34.94972 | 31.34278 | 33991 ft | 418 kts | 303° |
| 2026-04-27 07:49 | 34.97906 | 31.28175 | 33992 ft | 416 kts | 303° |
| 2026-04-27 07:49 | 35.00819 | 31.22103 | 33990 ft | 414 kts | 303° |
| 2026-04-27 07:50 | 35.03697 | 31.16096 | 33993 ft | 412 kts | 302° |
| 2026-04-27 07:50 | 35.06582 | 31.10063 | 33991 ft | 411 kts | 302° |
| 2026-04-27 07:51 | 35.09457 | 31.04040 | 33991 ft | 411 kts | 302° |
| 2026-04-27 07:51 | 35.12330 | 30.98010 | 33992 ft | 411 kts | 302° |
| 2026-04-27 07:52 | 35.15204 | 30.91971 | 33990 ft | 412 kts | 302° |
| 2026-04-27 07:52 | 35.18203 | 30.86006 | 33989 ft | 411 kts | 309° |
| 2026-04-27 07:53 | 35.22038 | 30.80841 | 33987 ft | 411 kts | 314° |
| 2026-04-27 07:53 | 35.25983 | 30.75767 | 33996 ft | 412 kts | 314° |
| 2026-04-27 07:54 | 35.29922 | 30.70654 | 33992 ft | 413 kts | 314° |
| 2026-04-27 07:54 | 35.33855 | 30.65511 | 33990 ft | 414 kts | 314° |
| 2026-04-27 07:55 | 35.37785 | 30.60350 | 33989 ft | 414 kts | 314° |
| 2026-04-27 07:55 | 35.41717 | 30.55180 | 33989 ft | 414 kts | 314° |
| 2026-04-27 07:56 | 35.45644 | 30.50007 | 33988 ft | 414 kts | 314° |
| 2026-04-27 07:56 | 35.49563 | 30.44837 | 33991 ft | 413 kts | 313° |
| 2026-04-27 07:57 | 35.53474 | 30.39671 | 33992 ft | 413 kts | 313° |
| 2026-04-27 07:57 | 35.57372 | 30.34513 | 33994 ft | 412 kts | 313° |
| 2026-04-27 07:58 | 35.61261 | 30.29359 | 33994 ft | 411 kts | 313° |
| 2026-04-27 07:58 | 35.65115 | 30.24244 | 33992 ft | 410 kts | 313° |
| 2026-04-27 07:59 | 35.68986 | 30.19099 | 33994 ft | 410 kts | 313° |
| 2026-04-27 07:59 | 35.74785 | 30.11376 | 33990 ft | 409 kts | 313° |
| 2026-04-27 08:00 | 35.78644 | 30.06226 | 33992 ft | 410 kts | 313° |
| 2026-04-27 08:00 | 35.82506 | 30.01060 | 33993 ft | 410 kts | 312° |
| 2026-04-27 08:01 | 35.85805 | 29.95331 | 33994 ft | 411 kts | 303° |
| 2026-04-27 08:01 | 35.88845 | 29.89351 | 33994 ft | 412 kts | 303° |
| 2026-04-27 08:02 | 35.91899 | 29.83367 | 33995 ft | 413 kts | 303° |
| 2026-04-27 08:02 | 35.94973 | 29.77377 | 33996 ft | 414 kts | 303° |
| 2026-04-27 08:03 | 35.98056 | 29.71375 | 33994 ft | 414 kts | 303° |
| 2026-04-27 08:03 | 36.01141 | 29.65359 | 33992 ft | 415 kts | 303° |
| 2026-04-27 08:04 | 36.04229 | 29.59328 | 33991 ft | 415 kts | 303° |
| 2026-04-27 08:04 | 36.07315 | 29.53288 | 33988 ft | 416 kts | 303° |
| 2026-04-27 08:05 | 36.10397 | 29.47246 | 33992 ft | 416 kts | 303° |
| 2026-04-27 08:05 | 36.13478 | 29.41195 | 33990 ft | 416 kts | 303° |
| 2026-04-27 08:06 | 36.16538 | 29.35176 | 33990 ft | 416 kts | 302° |
| 2026-04-27 08:06 | 36.20162 | 29.29641 | 33979 ft | 415 kts | 318° |
| 2026-04-27 08:07 | 36.24604 | 29.25070 | 33979 ft | 415 kts | 320° |
| 2026-04-27 08:07 | 36.29047 | 29.20492 | 33980 ft | 415 kts | 319° |
| 2026-04-27 08:08 | 36.32747 | 29.16621 | 33979 ft | 415 kts | 319° |
| 2026-04-27 08:08 | 36.37162 | 29.11989 | 33977 ft | 416 kts | 319° |
| 2026-04-27 08:09 | 36.41549 | 29.07381 | 33971 ft | 416 kts | 319° |
| 2026-04-27 08:09 | 36.45939 | 29.02763 | 33973 ft | 416 kts | 319° |
| 2026-04-27 08:10 | 36.50389 | 28.98075 | 33979 ft | 417 kts | 319° |
| 2026-04-27 08:10 | 36.54780 | 28.93441 | 33984 ft | 417 kts | 319° |
| 2026-04-27 08:11 | 36.59205 | 28.88765 | 33990 ft | 418 kts | 319° |
| 2026-04-27 08:11 | 36.63635 | 28.84076 | 33996 ft | 418 kts | 319° |
| 2026-04-27 08:12 | 36.68067 | 28.79377 | 33997 ft | 419 kts | 318° |
| 2026-04-27 08:12 | 36.72508 | 28.74661 | 33995 ft | 420 kts | 319° |
| 2026-04-27 08:13 | 36.76954 | 28.69932 | 33996 ft | 420 kts | 318° |
| 2026-04-27 08:13 | 36.81405 | 28.65191 | 33990 ft | 421 kts | 318° |
| 2026-04-27 08:14 | 36.85862 | 28.60436 | 33997 ft | 421 kts | 318° |
| 2026-04-27 08:14 | 36.90313 | 28.55680 | 33999 ft | 421 kts | 318° |
| 2026-04-27 08:15 | 36.94763 | 28.50916 | 34008 ft | 421 kts | 318° |
| 2026-04-27 08:15 | 36.99211 | 28.46148 | 34010 ft | 422 kts | 318° |
| 2026-04-27 08:16 | 37.03660 | 28.41372 | 34025 ft | 421 kts | 318° |
| 2026-04-27 08:16 | 37.08072 | 28.36626 | 34030 ft | 421 kts | 318° |
| 2026-04-27 08:17 | 37.12510 | 28.31845 | 34045 ft | 421 kts | 318° |
| 2026-04-27 08:17 | 37.16943 | 28.27062 | 34049 ft | 420 kts | 318° |
| 2026-04-27 08:18 | 37.21371 | 28.22276 | 34047 ft | 420 kts | 318° |
| 2026-04-27 08:18 | 37.25751 | 28.17536 | 34043 ft | 420 kts | 318° |
| 2026-04-27 08:19 | 37.30171 | 28.12743 | 34047 ft | 420 kts | 318° |
| 2026-04-27 08:19 | 37.34614 | 28.07949 | 34038 ft | 421 kts | 318° |
| 2026-04-27 08:20 | 37.39068 | 28.03156 | 34043 ft | 422 kts | 318° |
| 2026-04-27 08:20 | 37.43531 | 27.98343 | 34031 ft | 423 kts | 318° |
| 2026-04-27 08:21 | 37.47998 | 27.93516 | 34048 ft | 424 kts | 318° |
| 2026-04-27 08:21 | 37.52463 | 27.88679 | 34049 ft | 425 kts | 318° |
| 2026-04-27 08:22 | 37.56950 | 27.83811 | 34045 ft | 426 kts | 318° |
| 2026-04-27 08:22 | 37.61440 | 27.78931 | 34050 ft | 426 kts | 318° |
| 2026-04-27 08:23 | 37.65933 | 27.74041 | 34049 ft | 426 kts | 318° |
| 2026-04-27 08:23 | 37.70421 | 27.69147 | 34050 ft | 426 kts | 318° |
| 2026-04-27 08:24 | 37.74908 | 27.64247 | 34053 ft | 426 kts | 318° |
| 2026-04-27 08:24 | 37.79389 | 27.59345 | 34042 ft | 426 kts | 318° |
| 2026-04-27 08:25 | 37.83863 | 27.54442 | 34062 ft | 425 kts | 318° |
| 2026-04-27 08:25 | 37.88324 | 27.49545 | 34066 ft | 424 kts | 318° |
| 2026-04-27 08:26 | 37.92745 | 27.44686 | 34076 ft | 423 kts | 318° |
| 2026-04-27 08:26 | 37.97162 | 27.39820 | 34079 ft | 423 kts | 318° |
| 2026-04-27 08:27 | 38.01602 | 27.34923 | 34075 ft | 423 kts | 318° |
| 2026-04-27 08:27 | 38.06034 | 27.30026 | 34078 ft | 423 kts | 318° |
| 2026-04-27 08:28 | 38.10466 | 27.25120 | 34070 ft | 423 kts | 317° |
| 2026-04-27 08:28 | 38.14899 | 27.20206 | 34070 ft | 423 kts | 317° |
| 2026-04-27 08:29 | 38.19330 | 27.15285 | 34077 ft | 423 kts | 317° |
| 2026-04-27 08:29 | 38.23759 | 27.10358 | 34078 ft | 423 kts | 317° |
| 2026-04-27 08:30 | 38.28190 | 27.05421 | 34079 ft | 424 kts | 317° |
| 2026-04-27 08:30 | 38.32627 | 27.00469 | 34080 ft | 424 kts | 317° |
| 2026-04-27 08:31 | 38.37068 | 26.95503 | 34078 ft | 425 kts | 317° |
| 2026-04-27 08:31 | 38.41511 | 26.90527 | 34078 ft | 425 kts | 317° |
| 2026-04-27 08:32 | 38.45947 | 26.85551 | 34089 ft | 424 kts | 317° |
| 2026-04-27 08:32 | 38.50377 | 26.80572 | 34096 ft | 424 kts | 317° |
| 2026-04-27 08:33 | 38.54798 | 26.75596 | 34100 ft | 423 kts | 317° |
| 2026-04-27 08:33 | 38.59212 | 26.70618 | 34105 ft | 423 kts | 317° |
| 2026-04-27 08:34 | 38.63619 | 26.65640 | 34112 ft | 423 kts | 317° |
| 2026-04-27 08:34 | 38.68023 | 26.60657 | 34110 ft | 422 kts | 317° |
| 2026-04-27 08:35 | 38.72419 | 26.55674 | 34117 ft | 422 kts | 317° |
| 2026-04-27 08:35 | 38.76782 | 26.50719 | 34125 ft | 422 kts | 317° |
| 2026-04-27 08:36 | 38.81170 | 26.45729 | 34122 ft | 422 kts | 317° |
| 2026-04-27 08:36 | 38.85591 | 26.40775 | 34130 ft | 422 kts | 319° |
| 2026-04-27 08:37 | 38.90133 | 26.35999 | 34124 ft | 422 kts | 319° |
| 2026-04-27 08:37 | 38.94690 | 26.31229 | 34135 ft | 423 kts | 319° |
| 2026-04-27 08:38 | 38.99237 | 26.26424 | 34134 ft | 423 kts | 319° |
| 2026-04-27 08:38 | 39.03777 | 26.21598 | 34146 ft | 424 kts | 319° |
| 2026-04-27 08:39 | 39.08328 | 26.16749 | 34136 ft | 425 kts | 319° |
| 2026-04-27 08:39 | 39.12884 | 26.11885 | 34143 ft | 426 kts | 319° |
| 2026-04-27 08:40 | 39.17446 | 26.07009 | 34148 ft | 426 kts | 319° |
| 2026-04-27 08:40 | 39.22010 | 26.02120 | 34130 ft | 427 kts | 319° |
| 2026-04-27 08:41 | 39.26574 | 25.97224 | 34143 ft | 427 kts | 319° |
| 2026-04-27 08:41 | 39.31122 | 25.92308 | 34145 ft | 426 kts | 318° |
| 2026-04-27 08:42 | 39.35600 | 25.87320 | 34152 ft | 424 kts | 317° |
| 2026-04-27 08:42 | 39.40051 | 25.82330 | 34149 ft | 423 kts | 317° |
| 2026-04-27 08:43 | 39.44461 | 25.77389 | 34165 ft | 421 kts | 317° |
| 2026-04-27 08:43 | 39.48889 | 25.72430 | 34162 ft | 420 kts | 317° |
| 2026-04-27 08:44 | 39.53299 | 25.67484 | 34170 ft | 419 kts | 317° |
| 2026-04-27 08:44 | 39.57697 | 25.62543 | 34169 ft | 418 kts | 317° |
| 2026-04-27 08:45 | 39.62083 | 25.57607 | 34186 ft | 417 kts | 317° |
| 2026-04-27 08:45 | 39.66461 | 25.52671 | 34196 ft | 417 kts | 317° |
| 2026-04-27 08:46 | 39.70831 | 25.47736 | 34204 ft | 416 kts | 317° |
| 2026-04-27 08:46 | 39.75201 | 25.42792 | 34207 ft | 417 kts | 317° |
| 2026-04-27 08:47 | 39.79572 | 25.37837 | 34205 ft | 417 kts | 317° |
| 2026-04-27 08:47 | 39.82497 | 25.34516 | 34226 ft | 418 kts | 317° |